Time;durP1;ratioP1;P1;durP2;ratioP2;P2;SDS_P1;SDS_P2;PMS_P1;PMS_P2;Temp;Humidity;BMP_temperature;BMP_pressure;BME280_temperature;BME280_humidity;BME280_pressure;Samples;Min_cycle;Max_cycle;Signal;HPM_P1;HPM_P2
2023/01/15 00:00:33;;;;;;;0.60;0.30;;;13.00;99.90;;;;;;5032700;28;20206;-56
2023/01/15 00:02:59;;;;;;;0.87;0.47;;;13.00;99.90;;;;;;5032483;28;20570;-56
2023/01/15 00:05:26;;;;;;;0.27;0.20;;;13.00;99.90;;;;;;5032620;28;20214;-57
2023/01/15 00:07:53;;;;;;;0.30;0.30;;;13.00;99.90;;;;;;5032023;28;20711;-56
2023/01/15 00:10:21;;;;;;;0.90;0.40;;;13.10;99.90;;;;;;5032101;28;20209;-56
2023/01/15 00:12:48;;;;;;;1.00;0.37;;;13.10;99.90;;;;;;5031758;28;20206;-56
2023/01/15 00:15:15;;;;;;;0.30;0.20;;;13.00;99.90;;;;;;5032642;28;20217;-57
2023/01/15 00:17:41;;;;;;;0.40;0.30;;;13.10;99.90;;;;;;5032144;28;20222;-57
2023/01/15 00:20:10;;;;;;;0.20;0.20;;;13.10;99.90;;;;;;5031911;28;20609;-56
2023/01/15 00:22:36;;;;;;;0.87;0.20;;;13.00;99.90;;;;;;5031781;28;20234;-57
2023/01/15 00:27:49;;;;;;;3.83;2.90;;;13.00;99.90;;;;;;5032276;28;20225;-58
2023/01/15 00:30:17;;;;;;;1.30;0.40;;;12.90;99.90;;;;;;5032157;28;20242;-57
2023/01/15 00:32:44;;;;;;;0.50;0.30;;;12.90;99.90;;;;;;5031903;28;20202;-57
2023/01/15 00:35:13;;;;;;;0.60;0.40;;;12.90;99.90;;;;;;5032071;28;20689;-58
2023/01/15 00:37:40;;;;;;;0.67;0.37;;;12.90;99.90;;;;;;5032113;28;20233;-57
2023/01/15 00:40:07;;;;;;;0.20;0.20;;;12.90;99.90;;;;;;5032133;28;20217;-57
2023/01/15 00:42:34;;;;;;;1.17;0.60;;;12.90;99.90;;;;;;5032021;28;20237;-57
2023/01/15 00:45:09;;;;;;;0.23;0.20;;;13.00;99.90;;;;;;5031808;28;20206;-57
2023/01/15 00:47:36;;;;;;;0.57;0.20;;;13.00;99.90;;;;;;5031582;28;20729;-58
2023/01/15 00:50:03;;;;;;;0.40;0.40;;;13.00;99.90;;;;;;5032306;28;20292;-59
2023/01/15 00:52:30;;;;;;;0.10;0.10;;;13.00;99.90;;;;;;5031761;28;20198;-59
2023/01/15 00:54:56;;;;;;;0.50;0.30;;;12.90;99.90;;;;;;5031946;28;20211;-60
2023/01/15 00:57:23;;;;;;;0.43;0.30;;;12.90;99.90;;;;;;5031785;28;20213;-60
2023/01/15 00:59:50;;;;;;;0.53;0.33;;;12.90;99.90;;;;;;5031850;28;20202;-59
2023/01/15 01:02:19;;;;;;;1.20;0.40;;;12.90;99.90;;;;;;5035009;28;20233;-60
2023/01/15 01:04:46;;;;;;;0.20;0.20;;;13.00;99.90;;;;;;5035260;28;20694;-59
2023/01/15 01:07:12;;;;;;;1.00;0.70;;;13.00;99.90;;;;;;5035386;28;20217;-59
2023/01/15 01:09:39;;;;;;;0.30;0.20;;;13.00;99.90;;;;;;5035371;28;20230;-60
2023/01/15 01:12:07;;;;;;;0.80;0.40;;;12.90;99.90;;;;;;5035450;28;20203;-59
2023/01/15 01:14:33;;;;;;;1.27;0.60;;;12.90;99.90;;;;;;5034876;28;20615;-57
2023/01/15 01:17:00;;;;;;;0.87;0.27;;;12.90;99.90;;;;;;5035209;28;20217;-58
2023/01/15 01:19:28;;;;;;;0.77;0.40;;;13.00;99.90;;;;;;5035157;28;20331;-59
2023/01/15 01:21:55;;;;;;;0.97;0.70;;;13.00;99.90;;;;;;5035107;28;20237;-59
2023/01/15 01:24:24;;;;;;;5.13;0.87;;;13.10;99.90;;;;;;5034706;28;20583;-59
2023/01/15 01:26:51;;;;;;;0.23;0.20;;;13.10;99.90;;;;;;5034970;28;20675;-59
2023/01/15 01:29:19;;;;;;;1.03;0.40;;;13.10;99.90;;;;;;5034834;28;20229;-59
2023/01/15 01:31:47;;;;;;;2.00;0.27;;;13.10;99.90;;;;;;5035150;28;20202;-59
2023/01/15 01:34:14;;;;;;;0.50;0.30;;;13.10;99.90;;;;;;5034856;28;20210;-58
2023/01/15 01:36:44;;;;;;;2.10;0.40;;;13.20;99.90;;;;;;5034971;28;20252;-59
2023/01/15 01:39:14;;;;;;;0.20;0.20;;;13.20;99.90;;;;;;5034754;28;20711;-59
2023/01/15 01:41:40;;;;;;;1.17;0.20;;;13.20;99.90;;;;;;5034628;28;20702;-58
2023/01/15 01:44:28;;;;;;;0.67;0.27;;;13.30;99.90;;;;;;5034796;28;20210;-59
2023/01/15 01:46:56;;;;;;;0.47;0.20;;;13.20;99.90;;;;;;5034663;28;20206;-59
2023/01/15 01:49:24;;;;;;;0.23;0.20;;;13.30;99.90;;;;;;5035065;28;20233;-59
2023/01/15 01:51:56;;;;;;;0.10;0.10;;;13.30;99.90;;;;;;5034532;28;20206;-60
2023/01/15 01:54:27;;;;;;;0.43;0.20;;;13.30;99.90;;;;;;5034555;28;20206;-59
2023/01/15 01:56:54;;;;;;;0.40;0.27;;;13.40;99.90;;;;;;5034587;28;20215;-58
2023/01/15 01:59:22;;;;;;;0.83;0.40;;;13.40;99.90;;;;;;5034640;28;20233;-59
2023/01/15 02:01:50;;;;;;;1.43;0.20;;;13.50;99.90;;;;;;5034145;28;20229;-59
2023/01/15 02:04:21;;;;;;;0.40;0.30;;;13.40;99.90;;;;;;5034327;28;20621;-60
2023/01/15 02:06:48;;;;;;;0.87;0.30;;;13.40;99.90;;;;;;5034314;28;20217;-59
2023/01/15 02:09:15;;;;;;;0.23;0.20;;;13.40;99.90;;;;;;5034447;28;20237;-59
2023/01/15 02:11:42;;;;;;;0.27;0.10;;;13.30;99.90;;;;;;5034284;28;20210;-59
2023/01/15 02:14:14;;;;;;;0.27;0.20;;;13.30;99.90;;;;;;5033866;28;20217;-59
2023/01/15 02:16:47;;;;;;;0.10;0.10;;;13.40;99.90;;;;;;5034541;28;20202;-59
2023/01/15 02:19:26;;;;;;;0.10;0.10;;;13.30;99.90;;;;;;5034446;28;20296;-59
2023/01/15 02:22:00;;;;;;;0.67;0.30;;;13.40;99.90;;;;;;5034261;28;20222;-59
2023/01/15 02:24:36;;;;;;;0.27;0.27;;;13.40;99.90;;;;;;5033904;28;20217;-59
2023/01/15 02:27:11;;;;;;;0.43;0.20;;;13.50;99.90;;;;;;5033836;28;20673;-59
2023/01/15 02:29:48;;;;;;;0.10;0.10;;;13.50;99.90;;;;;;5033975;28;20229;-59
2023/01/15 02:32:19;;;;;;;0.27;0.13;;;13.50;99.90;;;;;;5034003;28;20206;-59
2023/01/15 02:34:51;;;;;;;0.20;0.10;;;13.50;99.90;;;;;;5033726;28;20245;-59
2023/01/15 02:37:23;;;;;;;0.30;0.30;;;13.40;99.90;;;;;;5033895;28;20489;-59
2023/01/15 02:39:52;;;;;;;0.17;0.17;;;13.40;99.90;;;;;;5033889;28;20190;-59
2023/01/15 02:42:21;;;;;;;0.50;0.20;;;13.40;99.90;;;;;;5033843;28;20221;-59
2023/01/15 02:44:51;;;;;;;0.83;0.10;;;13.30;99.90;;;;;;5033199;28;20214;-59
2023/01/15 02:47:23;;;;;;;0.43;0.10;;;13.40;99.90;;;;;;5033652;28;20210;-59
2023/01/15 02:49:51;;;;;;;0.17;0.10;;;13.40;99.90;;;;;;5033337;28;20599;-60
2023/01/15 02:52:22;;;;;;;0.40;0.20;;;13.50;99.90;;;;;;5033556;28;20317;-60
2023/01/15 02:54:54;;;;;;;1.90;0.17;;;13.50;99.90;;;;;;5033302;28;20206;-59
2023/01/15 02:57:25;;;;;;;0.23;0.10;;;13.40;99.90;;;;;;5033700;28;20202;-59
2023/01/15 02:59:54;;;;;;;0.10;0.10;;;13.40;99.90;;;;;;5033436;28;20206;-58
2023/01/15 03:02:25;;;;;;;0.30;0.10;;;13.40;99.90;;;;;;5033574;28;20225;-59
2023/01/15 03:04:56;;;;;;;0.30;0.20;;;13.30;99.90;;;;;;5032901;28;20210;-59
2023/01/15 03:07:27;;;;;;;0.20;0.20;;;13.30;99.90;;;;;;5033091;28;20671;-59
2023/01/15 03:09:56;;;;;;;0.73;0.30;;;13.30;99.90;;;;;;5033162;28;20698;-59
2023/01/15 03:12:29;;;;;;;0.30;0.20;;;13.30;99.90;;;;;;5033510;28;20198;-59
2023/01/15 03:15:02;;;;;;;0.33;0.20;;;13.40;99.90;;;;;;5033014;28;20210;-59
2023/01/15 03:17:35;;;;;;;1.03;0.10;;;13.40;99.90;;;;;;5032942;28;20213;-59
2023/01/15 03:20:09;;;;;;;0.27;0.20;;;13.40;99.90;;;;;;5033307;28;20225;-59
2023/01/15 03:22:43;;;;;;;0.13;0.10;;;13.40;99.90;;;;;;5032818;28;20237;-59
2023/01/15 03:25:13;;;;;;;0.57;0.27;;;13.40;99.90;;;;;;5032252;28;20211;-58
2023/01/15 03:27:41;;;;;;;0.20;0.20;;;13.30;99.90;;;;;;5032654;28;20234;-59
2023/01/15 03:30:11;;;;;;;0.87;0.20;;;13.30;99.90;;;;;;5032642;28;20312;-59
2023/01/15 03:32:38;;;;;;;0.30;0.20;;;13.20;99.90;;;;;;5032495;28;20202;-58
2023/01/15 03:35:06;;;;;;;0.20;0.20;;;13.20;99.90;;;;;;5032745;28;20611;-58
2023/01/15 03:37:33;;;;;;;0.17;0.10;;;13.30;99.90;;;;;;5032758;28;20214;-58
2023/01/15 03:40:00;;;;;;;1.30;0.13;;;13.30;99.90;;;;;;5032712;28;20237;-58
2023/01/15 03:42:35;;;;;;;0.10;0.10;;;13.30;99.90;;;;;;5032558;28;20221;-58
2023/01/15 03:45:10;;;;;;;0.37;0.20;;;13.30;99.90;;;;;;5032501;28;20206;-58
2023/01/15 03:47:47;;;;;;;0.20;0.13;;;13.30;99.90;;;;;;5032371;28;20237;-58
2023/01/15 03:50:23;;;;;;;0.20;0.10;;;13.40;99.90;;;;;;5032690;28;20305;-58
2023/01/15 03:53:00;;;;;;;0.20;0.10;;;13.40;99.90;;;;;;5032328;28;20279;-58
2023/01/15 03:55:35;;;;;;;1.47;0.20;;;13.40;99.90;;;;;;5032525;28;20599;-58
2023/01/15 03:58:10;;;;;;;0.73;0.07;;;13.50;99.90;;;;;;5032119;28;20229;-58
2023/01/15 04:00:42;;;;;;;0.60;0.07;;;13.50;99.90;;;;;;5032474;28;20256;-58
2023/01/15 04:03:10;;;;;;;2.17;0.20;;;13.40;99.90;;;;;;5032224;28;20253;-58
2023/01/15 04:05:39;;;;;;;0.20;0.17;;;13.50;99.90;;;;;;5032695;28;20213;-58
2023/01/15 04:08:07;;;;;;;0.43;0.10;;;13.50;99.90;;;;;;5032389;28;20232;-58
2023/01/15 04:10:33;;;;;;;0.23;0.13;;;13.40;99.90;;;;;;5032381;28;20713;-58
2023/01/15 04:13:00;;;;;;;0.20;0.10;;;13.50;99.90;;;;;;5032136;28;20210;-58
2023/01/15 04:15:27;;;;;;;0.03;0.03;;;13.50;99.90;;;;;;5032282;28;20209;-59
2023/01/15 04:17:55;;;;;;;0.10;0.10;;;13.60;99.90;;;;;;5032039;28;20226;-59
2023/01/15 04:20:21;;;;;;;0.23;0.10;;;13.50;99.90;;;;;;5032512;28;20257;-59
2023/01/15 04:22:48;;;;;;;0.40;0.17;;;13.60;99.90;;;;;;5032275;28;20643;-59
2023/01/15 04:25:15;;;;;;;0.10;0.10;;;13.50;99.90;;;;;;5032086;28;20206;-58
2023/01/15 04:27:42;;;;;;;0.10;0.10;;;13.50;99.90;;;;;;5032269;28;20710;-59
2023/01/15 04:30:10;;;;;;;0.33;0.20;;;13.50;99.90;;;;;;5032703;28;20217;-59
2023/01/15 04:32:36;;;;;;;0.77;0.20;;;13.60;99.90;;;;;;5032774;28;20740;-58
2023/01/15 04:35:05;;;;;;;0.00;0.00;;;13.60;99.90;;;;;;5032380;28;20209;-59
2023/01/15 04:37:32;;;;;;;0.10;0.07;;;13.50;99.90;;;;;;5036413;28;20217;-58
2023/01/15 04:39:59;;;;;;;0.20;0.17;;;13.50;99.90;;;;;;5036569;28;20206;-58
2023/01/15 04:45:10;;;;;;;0.33;0.10;;;13.50;99.90;;;;;;5036044;28;20209;-58
2023/01/15 04:47:37;;;;;;;0.20;0.10;;;13.50;99.90;;;;;;5036136;28;20612;-58
2023/01/15 04:50:06;;;;;;;0.63;0.10;;;13.50;99.90;;;;;;5036131;28;20202;-59
2023/01/15 04:52:33;;;;;;;0.50;0.20;;;13.50;99.90;;;;;;5036125;28;20206;-58
2023/01/15 04:54:59;;;;;;;0.20;0.20;;;13.50;99.90;;;;;;5035779;28;20203;-59
2023/01/15 04:57:26;;;;;;;0.10;0.10;;;13.50;99.90;;;;;;5035921;28;20210;-58
2023/01/15 04:59:53;;;;;;;0.57;0.10;;;13.60;99.90;;;;;;5036044;28;20221;-59
2023/01/15 05:02:19;;;;;;;0.30;0.10;;;13.60;99.90;;;;;;5035882;28;20226;-58
2023/01/15 05:04:46;;;;;;;0.53;0.20;;;13.70;99.90;;;;;;5035891;28;20214;-59
2023/01/15 05:07:14;;;;;;;0.50;0.20;;;13.60;99.90;;;;;;5035971;28;20202;-59
2023/01/15 05:09:41;;;;;;;0.53;0.10;;;13.60;99.90;;;;;;5035727;28;20213;-59
2023/01/15 05:12:08;;;;;;;0.13;0.13;;;13.60;99.90;;;;;;5036165;28;20256;-59
2023/01/15 05:14:35;;;;;;;0.30;0.10;;;13.60;99.90;;;;;;5035203;28;20206;-59
2023/01/15 05:17:02;;;;;;;0.43;0.10;;;13.50;99.90;;;;;;5035383;28;20839;-58
2023/01/15 05:19:28;;;;;;;0.10;0.10;;;13.60;99.90;;;;;;5035058;28;20230;-59
2023/01/15 05:21:55;;;;;;;1.10;0.27;;;13.60;99.90;;;;;;5035357;28;20210;-58
2023/01/15 05:24:23;;;;;;;0.93;0.20;;;13.40;99.90;;;;;;5034860;28;20593;-59
2023/01/15 05:26:50;;;;;;;2.20;0.90;;;13.40;99.90;;;;;;5035043;28;20260;-59
2023/01/15 05:29:17;;;;;;;2.10;0.10;;;13.20;99.90;;;;;;5034998;28;20229;-59
2023/01/15 05:31:44;;;;;;;4.53;0.37;;;12.90;99.90;;;;;;5034896;28;20713;-59
2023/01/15 05:34:12;;;;;;;0.33;0.20;;;12.70;99.90;;;;;;5034970;28;20229;-59
2023/01/15 05:36:38;;;;;;;0.60;0.20;;;12.40;99.90;;;;;;5034971;28;20245;-57
2023/01/15 05:39:05;;;;;;;1.17;0.30;;;12.20;99.90;;;;;;5034873;28;20738;-59
2023/01/15 05:41:52;;;;;;;0.50;0.33;;;12.00;99.90;;;;;;5034762;28;20695;-59
2023/01/15 05:44:22;;;;;;;0.37;0.10;;;11.90;99.90;;;;;;5034520;28;20579;-59
2023/01/15 05:46:50;;;;;;;0.27;0.10;;;11.80;99.90;;;;;;5034032;28;20211;-59
2023/01/15 05:49:19;;;;;;;0.27;0.10;;;11.70;99.90;;;;;;5034226;28;20230;-59
2023/01/15 05:51:47;;;;;;;0.37;0.30;;;11.60;99.90;;;;;;5034860;28;20214;-59
2023/01/15 05:54:17;;;;;;;0.13;0.10;;;11.50;99.90;;;;;;5034225;28;20202;-59
2023/01/15 05:56:45;;;;;;;0.47;0.20;;;11.50;99.90;;;;;;5034110;28;20202;-59
2023/01/15 05:59:13;;;;;;;0.70;0.10;;;11.40;99.90;;;;;;5034731;28;20227;-59
2023/01/15 06:01:40;;;;;;;0.33;0.23;;;11.40;99.90;;;;;;5034379;28;20206;-59
2023/01/15 06:04:07;;;;;;;0.20;0.10;;;11.30;99.90;;;;;;5034143;28;20485;-59
2023/01/15 06:06:35;;;;;;;0.10;0.10;;;11.10;99.90;;;;;;5034485;28;20581;-59
2023/01/15 06:09:02;;;;;;;0.10;0.00;;;11.10;99.90;;;;;;5034561;28;20292;-59
2023/01/15 06:11:29;;;;;;;0.20;0.20;;;11.00;99.90;;;;;;5034522;28;20213;-59
2023/01/15 06:13:57;;;;;;;0.53;0.20;;;10.90;99.90;;;;;;5034478;28;20210;-58
2023/01/15 06:16:24;;;;;;;0.10;0.10;;;10.80;99.90;;;;;;5034122;28;20682;-57
2023/01/15 06:18:51;;;;;;;0.13;0.13;;;10.70;99.90;;;;;;5034257;28;20237;-57
2023/01/15 06:21:17;;;;;;;0.20;0.20;;;10.60;99.90;;;;;;5034528;28;20207;-58
2023/01/15 06:23:44;;;;;;;0.10;0.10;;;10.60;99.90;;;;;;5033842;28;20233;-58
2023/01/15 06:26:13;;;;;;;0.20;0.10;;;10.60;99.90;;;;;;5034032;28;20206;-58
2023/01/15 06:28:40;;;;;;;0.33;0.10;;;10.60;99.90;;;;;;5033862;28;20604;-59
2023/01/15 06:31:10;;;;;;;0.63;0.20;;;10.60;99.90;;;;;;5033983;28;20205;-58
2023/01/15 06:33:37;;;;;;;0.33;0.23;;;10.50;99.90;;;;;;5033871;28;20198;-58
2023/01/15 06:36:05;;;;;;;0.20;0.20;;;10.60;99.90;;;;;;5033821;28;20209;-59
2023/01/15 06:38:32;;;;;;;0.40;0.20;;;10.40;99.90;;;;;;5033833;28;20237;-58
2023/01/15 06:40:59;;;;;;;0.20;0.20;;;10.40;99.90;;;;;;5033620;28;20795;-58
2023/01/15 06:48:57;;;;;;;1.73;1.13;;;10.50;99.90;;;;;;5034084;28;20237;-59
2023/01/15 06:51:24;;;;;;;0.80;0.60;;;10.40;99.90;;;;;;5033583;28;20579;-58
2023/01/15 06:53:51;;;;;;;0.77;0.30;;;10.50;99.90;;;;;;5033323;28;20198;-58
2023/01/15 06:56:18;;;;;;;0.40;0.20;;;10.40;99.90;;;;;;5033191;28;20202;-58
2023/01/15 06:58:44;;;;;;;0.63;0.53;;;10.30;99.90;;;;;;5033195;28;20262;-58
2023/01/15 07:01:14;;;;;;;0.20;0.20;;;10.20;99.90;;;;;;5033602;28;20225;-58
2023/01/15 07:03:42;;;;;;;0.30;0.30;;;10.10;99.90;;;;;;5033526;28;20222;-58
2023/01/15 07:06:11;;;;;;;0.40;0.30;;;9.90;99.90;;;;;;5033971;28;20289;-58
2023/01/15 07:08:38;;;;;;;0.30;0.20;;;9.80;99.90;;;;;;5033589;28;20222;-59
2023/01/15 07:11:07;;;;;;;1.27;0.40;;;9.80;99.90;;;;;;5033837;28;20317;-58
2023/01/15 07:13:34;;;;;;;0.27;0.27;;;9.70;99.90;;;;;;5033443;28;20210;-59
2023/01/15 07:16:02;;;;;;;0.70;0.40;;;9.50;99.90;;;;;;5033560;28;20682;-58
2023/01/15 07:18:33;;;;;;;0.20;0.20;;;9.50;99.90;;;;;;5033657;28;20226;-59
2023/01/15 07:21:00;;;;;;;0.97;0.27;;;9.50;99.90;;;;;;5033491;28;20245;-58
2023/01/15 07:23:28;;;;;;;0.10;0.10;;;9.30;99.90;;;;;;5032907;28;20660;-58
2023/01/15 07:25:55;;;;;;;0.43;0.20;;;9.20;99.90;;;;;;5033374;28;20289;-57
2023/01/15 07:28:23;;;;;;;0.30;0.20;;;9.20;99.90;;;;;;5033652;28;20242;-58
2023/01/15 07:30:50;;;;;;;0.13;0.10;;;9.00;99.90;;;;;;5034012;28;20221;-58
2023/01/15 07:33:17;;;;;;;0.10;0.10;;;8.90;99.90;;;;;;5033265;28;20212;-57
2023/01/15 07:35:45;;;;;;;0.10;0.10;;;9.00;99.90;;;;;;5033109;28;20213;-58
2023/01/15 07:38:12;;;;;;;0.30;0.17;;;8.90;99.90;;;;;;5033328;28;20260;-58
2023/01/15 07:40:39;;;;;;;0.30;0.20;;;8.90;99.90;;;;;;5033386;28;20211;-59
2023/01/15 07:51:19;;;;;;;0.57;0.40;;;8.90;99.90;;;;;;5033535;28;20209;-57
2023/01/15 07:53:46;;;;;;;0.43;0.30;;;8.80;99.90;;;;;;5032760;28;20203;-57
2023/01/15 07:56:13;;;;;;;1.33;0.70;;;8.80;99.90;;;;;;5033209;28;20212;-58
2023/01/15 07:58:40;;;;;;;0.43;0.43;;;8.70;99.90;;;;;;5032908;28;20725;-58
2023/01/15 08:01:07;;;;;;;0.27;0.20;;;8.80;99.90;;;;;;5032889;28;20213;-58
2023/01/15 08:03:34;;;;;;;0.63;0.20;;;8.80;99.90;;;;;;5032911;28;20222;-58
2023/01/15 08:06:01;;;;;;;0.30;0.30;;;8.90;99.90;;;;;;5033363;28;20210;-58
2023/01/15 08:08:29;;;;;;;0.20;0.20;;;8.90;99.90;;;;;;5035049;28;20230;-58
2023/01/15 08:16:29;;;;;;;0.40;0.23;;;8.80;99.90;;;;;;5035552;28;20201;-58
2023/01/15 08:18:56;;;;;;;0.53;0.23;;;8.80;99.90;;;;;;5035090;28;20256;-58
2023/01/15 08:21:23;;;;;;;0.70;0.30;;;8.80;99.90;;;;;;5034962;28;20206;-59
2023/01/15 08:23:51;;;;;;;0.47;0.40;;;8.70;99.90;;;;;;5034785;28;20222;-58
2023/01/15 08:26:18;;;;;;;0.43;0.20;;;8.60;99.90;;;;;;5034590;28;20210;-58
2023/01/15 08:28:44;;;;;;;2.50;0.27;;;8.60;99.90;;;;;;5034784;28;20234;-58
2023/01/15 08:31:11;;;;;;;1.17;0.30;;;8.70;99.90;;;;;;5034175;28;20206;-58
2023/01/15 08:33:38;;;;;;;0.70;0.37;;;8.80;99.90;;;;;;5033022;28;20210;-58
2023/01/15 08:36:05;;;;;;;0.80;0.37;;;8.90;99.90;;;;;;5032931;28;20207;-58
2023/01/15 08:38:32;;;;;;;0.23;0.20;;;9.00;99.90;;;;;;5033350;28;20233;-58
2023/01/15 08:41:02;;;;;;;0.13;0.13;;;9.00;99.90;;;;;;5033043;28;20815;-58
2023/01/15 08:43:31;;;;;;;0.70;0.37;;;9.00;99.90;;;;;;5032353;28;20226;-59
2023/01/15 08:45:58;;;;;;;1.00;0.30;;;9.10;99.90;;;;;;5032292;28;20214;-59
2023/01/15 08:48:25;;;;;;;0.30;0.30;;;9.10;99.90;;;;;;5032351;28;20257;-57
2023/01/15 08:50:52;;;;;;;0.23;0.23;;;9.00;99.90;;;;;;5032332;28;20637;-57
2023/01/15 08:53:20;;;;;;;0.13;0.10;;;9.10;99.90;;;;;;5031871;28;20209;-57
2023/01/15 08:55:47;;;;;;;0.20;0.20;;;9.10;99.90;;;;;;5032304;28;20297;-56
2023/01/15 08:58:16;;;;;;;0.10;0.10;;;9.50;99.90;;;;;;5032423;28;20223;-57
2023/01/15 09:00:43;;;;;;;0.10;0.10;;;9.10;99.90;;;;;;5032356;28;20210;-57
2023/01/15 09:03:10;;;;;;;0.33;0.30;;;8.90;99.90;;;;;;5032121;28;20582;-57
2023/01/15 09:05:37;;;;;;;0.60;0.50;;;8.90;99.90;;;;;;5032588;28;20213;-57
2023/01/15 09:08:04;;;;;;;0.57;0.20;;;8.90;99.90;;;;;;5032045;28;20311;-56
2023/01/15 09:10:31;;;;;;;0.20;0.20;;;8.90;99.90;;;;;;5032158;28;20206;-56
2023/01/15 09:12:59;;;;;;;0.20;0.20;;;8.80;99.90;;;;;;5032027;28;20225;-57
2023/01/15 09:15:27;;;;;;;1.80;0.70;;;8.70;99.90;;;;;;5031608;28;20562;-57
2023/01/15 09:17:55;;;;;;;0.27;0.27;;;8.80;99.90;;;;;;5031457;28;20632;-57
2023/01/15 09:20:22;;;;;;;0.43;0.27;;;8.70;99.90;;;;;;5031925;28;20217;-57
2023/01/15 09:22:49;;;;;;;0.27;0.20;;;8.80;99.90;;;;;;5032595;28;20211;-57
2023/01/15 09:25:18;;;;;;;0.40;0.30;;;8.80;99.90;;;;;;5035071;28;20260;-57
2023/01/15 09:27:44;;;;;;;1.50;0.20;;;8.80;99.90;;;;;;5035108;28;20226;-56
2023/01/15 09:30:16;;;;;;;0.00;0.00;;;8.80;99.90;;;;;;5035135;28;20206;-56
2023/01/15 09:32:44;;;;;;;0.40;0.20;;;8.70;99.90;;;;;;5035312;28;20242;-56
2023/01/15 09:35:11;;;;;;;0.93;0.20;;;8.60;99.90;;;;;;5034837;28;20210;-56
2023/01/15 09:37:38;;;;;;;0.30;0.27;;;8.70;99.90;;;;;;5035111;28;20602;-56
2023/01/15 09:40:08;;;;;;;0.10;0.10;;;8.80;99.90;;;;;;5035185;28;20252;-56
2023/01/15 09:42:46;;;;;;;0.20;0.20;;;8.70;99.90;;;;;;5034986;28;20213;-55
2023/01/15 09:45:21;;;;;;;2.07;0.77;;;8.70;99.90;;;;;;5034779;28;20237;-56
2023/01/15 09:48:11;;;;;;;0.63;0.40;;;8.70;99.90;;;;;;5034717;28;20299;-57
2023/01/15 09:50:48;;;;;;;0.10;0.10;;;8.60;99.90;;;;;;5034853;28;20213;-56
2023/01/15 09:54:04;;;;;;;9.50;7.63;;;8.60;99.90;;;;;;5034780;28;20202;-56
2023/01/15 09:56:32;;;;;;;2.20;1.13;;;8.70;99.90;;;;;;4973410;28;20201;-56
2023/01/15 09:59:03;;;;;;;0.30;0.20;;;8.80;99.90;;;;;;5020883;28;20671;-56
2023/01/15 10:01:32;;;;;;;0.27;0.27;;;8.80;99.90;;;;;;5034411;28;20218;-56
2023/01/15 10:04:05;;;;;;;0.43;0.20;;;8.90;99.90;;;;;;5034462;28;20241;-57
2023/01/15 10:06:39;;;;;;;0.20;0.20;;;8.90;99.90;;;;;;5034666;28;20207;-56
2023/01/15 10:09:13;;;;;;;0.40;0.30;;;8.80;99.90;;;;;;5034457;28;20231;-57
2023/01/15 10:14:39;;;;;;;0.30;0.30;;;8.80;99.90;;;;;;5034383;28;20288;-56
2023/01/15 10:17:24;;;;;;;0.50;0.30;;;8.90;99.90;;;;;;5034555;28;20208;-56
2023/01/15 10:19:53;;;;;;;0.23;0.20;;;9.00;99.90;;;;;;5034329;28;20210;-56
2023/01/15 10:22:32;;;;;;;0.60;0.33;;;9.00;99.90;;;;;;5033816;28;20210;-56
2023/01/15 10:25:02;;;;;;;0.30;0.20;;;8.90;99.90;;;;;;5033878;28;20222;-56
2023/01/15 10:27:32;;;;;;;0.73;0.63;;;8.80;99.90;;;;;;5033819;28;20611;-56
2023/01/15 10:30:05;;;;;;;1.50;0.30;;;8.60;99.90;;;;;;5034165;28;20206;-56
2023/01/15 10:32:41;;;;;;;1.73;1.23;;;8.40;99.90;;;;;;5033971;28;20709;-56
2023/01/15 10:35:26;;;;;;;0.20;0.13;;;8.40;99.90;;;;;;5033102;28;20202;-56
2023/01/15 10:37:58;;;;;;;0.87;0.20;;;8.40;99.90;;;;;;5034021;28;20641;-56
2023/01/15 10:40:36;;;;;;;0.30;0.30;;;8.30;99.90;;;;;;5034357;28;20203;-56
2023/01/15 10:43:10;;;;;;;0.30;0.10;;;8.30;99.90;;;;;;5033765;28;20244;-56
2023/01/15 10:45:44;;;;;;;8.77;7.20;;;8.20;99.90;;;;;;5033498;28;20241;-56
2023/01/15 10:48:18;;;;;;;0.40;0.30;;;8.30;99.90;;;;;;5033544;28;20229;-56
2023/01/15 10:50:47;;;;;;;0.23;0.20;;;8.40;99.90;;;;;;5033526;28;20671;-56
2023/01/15 10:53:22;;;;;;;0.10;0.10;;;8.40;99.90;;;;;;5033517;28;20221;-57
2023/01/15 10:55:52;;;;;;;0.03;0.03;;;8.20;99.90;;;;;;5033552;28;20214;-57
2023/01/15 10:58:29;;;;;;;0.10;0.10;;;8.20;99.90;;;;;;5033990;28;20226;-58
2023/01/15 11:01:01;;;;;;;0.83;0.20;;;8.00;99.90;;;;;;5033837;28;20616;-56
2023/01/15 11:03:35;;;;;;;0.50;0.20;;;7.80;99.90;;;;;;5033452;28;20210;-59
2023/01/15 11:06:04;;;;;;;0.20;0.20;;;7.60;99.90;;;;;;5033337;28;20233;-62
2023/01/15 11:08:32;;;;;;;1.07;0.20;;;7.50;99.90;;;;;;5033506;28;20234;-58
2023/01/15 11:11:13;;;;;;;0.40;0.20;;;7.50;99.90;;;;;;5033823;28;20667;-61
2023/01/15 11:19:37;;;;;;;0.53;0.40;;;7.60;99.90;;;;;;5033786;28;20220;-55
2023/01/15 11:22:10;;;;;;;1.53;0.70;;;7.60;99.90;;;;;;5034138;28;20229;-55
2023/01/15 11:24:44;;;;;;;0.27;0.27;;;7.60;99.90;;;;;;5033220;28;20779;-55
2023/01/15 11:27:16;;;;;;;0.77;0.30;;;7.60;99.90;;;;;;5033331;28;20210;-55
2023/01/15 11:29:45;;;;;;;0.20;0.10;;;7.60;99.90;;;;;;5033307;28;20206;-55
2023/01/15 11:32:28;;;;;;;1.30;0.80;;;7.60;99.90;;;;;;5032940;28;20381;-56
2023/01/15 11:34:56;;;;;;;0.20;0.20;;;7.60;99.90;;;;;;5032782;28;20221;-55
2023/01/15 11:37:24;;;;;;;0.70;0.20;;;7.50;99.90;;;;;;5032600;28;20217;-55
2023/01/15 11:39:55;;;;;;;0.10;0.10;;;7.50;99.90;;;;;;5032986;28;20210;-55
2023/01/15 11:50:52;;;;;;;1.03;0.50;;;7.30;99.90;;;;;;5032629;28;20201;-55
2023/01/15 11:53:23;;;;;;;3.33;1.63;;;7.20;99.90;;;;;;5032671;28;20206;-55
2023/01/15 11:55:58;;;;;;;0.60;0.27;;;7.10;99.90;;;;;;5032513;28;20289;-55
2023/01/15 11:58:27;;;;;;;0.57;0.40;;;7.00;99.90;;;;;;5033300;28;20312;-55
2023/01/15 12:00:55;;;;;;;0.93;0.40;;;7.00;99.90;;;;;;5033296;28;20578;-55
2023/01/15 12:03:26;;;;;;;1.60;0.40;;;7.10;99.90;;;;;;5033016;28;20284;-56
2023/01/15 12:05:59;;;;;;;1.73;0.70;;;7.10;99.90;;;;;;5032268;28;20237;-55
2023/01/15 12:08:50;;;;;;;0.93;0.43;;;7.20;99.90;;;;;;5032387;28;20230;-55
2023/01/15 12:11:44;;;;;;;0.60;0.30;;;7.30;99.90;;;;;;5032498;28;20210;-55
2023/01/15 12:14:34;;;;;;;1.07;0.50;;;7.40;99.90;;;;;;5032232;28;20241;-57
2023/01/15 12:17:12;;;;;;;0.93;0.57;;;7.40;99.90;;;;;;5022535;28;20210;-55
2023/01/15 12:19:47;;;;;;;1.43;0.60;;;7.30;99.90;;;;;;5032710;28;20226;-60
2023/01/15 12:22:26;;;;;;;1.00;0.70;;;7.30;99.90;;;;;;5033201;28;20209;-56
2023/01/15 12:25:11;;;;;;;4.93;1.93;;;7.40;99.90;;;;;;5032395;28;20309;-56
2023/01/15 12:27:54;;;;;;;1.43;0.73;;;7.40;99.90;;;;;;5032549;28;20240;-56
2023/01/15 12:30:27;;;;;;;0.60;0.37;;;7.30;99.90;;;;;;5032426;28;20248;-56
2023/01/15 12:33:01;;;;;;;0.83;0.33;;;7.30;99.90;;;;;;5032662;28;20210;-56
2023/01/15 12:35:30;;;;;;;1.07;0.37;;;7.30;99.90;;;;;;5032354;28;20293;-56
2023/01/15 12:38:01;;;;;;;1.13;0.50;;;7.30;99.90;;;;;;5031905;28;20580;-56
2023/01/15 12:40:39;;;;;;;0.93;0.20;;;7.30;99.90;;;;;;5032685;28;20210;-56
2023/01/15 12:46:01;;;;;;;1.90;0.67;;;7.30;99.90;;;;;;5032428;28;20596;-56
2023/01/15 12:48:35;;;;;;;1.50;0.70;;;7.30;99.90;;;;;;5032050;28;20238;-56
2023/01/15 12:51:05;;;;;;;1.80;0.50;;;7.40;99.90;;;;;;5032244;28;20210;-56
2023/01/15 12:53:41;;;;;;;5.57;2.03;;;7.40;99.90;;;;;;5031833;28;20583;-56
2023/01/15 12:56:21;;;;;;;13.00;5.13;;;7.30;99.90;;;;;;5032094;28;20198;-55
2023/01/15 12:58:53;;;;;;;8.50;3.37;;;7.40;99.90;;;;;;5035681;28;20226;-56
2023/01/15 13:01:29;;;;;;;34.50;13.87;;;7.50;99.90;;;;;;5036138;28;20202;-56
2023/01/15 13:04:07;;;;;;;2.20;0.77;;;7.50;99.90;;;;;;5036192;28;20261;-56
2023/01/15 13:06:37;;;;;;;2.10;1.20;;;7.50;99.90;;;;;;5036653;28;20230;-56
2023/01/15 13:09:10;;;;;;;1.73;0.63;;;7.50;99.90;;;;;;5036890;28;20257;-55
2023/01/15 13:11:38;;;;;;;5.57;2.00;;;7.60;99.90;;;;;;5036634;28;20206;-56
2023/01/15 13:14:14;;;;;;;1.03;0.60;;;7.70;99.90;;;;;;5035934;28;20601;-57
2023/01/15 13:16:48;;;;;;;1.97;0.70;;;7.80;99.90;;;;;;5035851;28;20198;-56
2023/01/15 13:19:28;;;;;;;4.73;1.10;;;7.80;99.90;;;;;;5035691;28;20317;-56
2023/01/15 13:21:59;;;;;;;2.07;0.90;;;7.80;99.90;;;;;;5035516;28;20652;-56
2023/01/15 13:24:54;;;;;;;2.97;1.60;;;7.90;99.90;;;;;;5035889;28;20598;-56
2023/01/15 13:27:36;;;;;;;1.30;0.70;;;8.00;99.90;;;;;;5022502;28;20591;-56
2023/01/15 13:30:15;;;;;;;1.57;0.63;;;8.10;99.90;;;;;;5035903;28;20257;-60
2023/01/15 13:32:45;;;;;;;9.23;5.10;;;8.20;99.90;;;;;;5035656;28;20214;-56
2023/01/15 13:35:19;;;;;;;2.50;0.90;;;8.30;99.90;;;;;;5035610;28;20209;-57
2023/01/15 13:37:50;;;;;;;1.40;0.60;;;8.40;99.90;;;;;;5035826;28;20609;-57
2023/01/15 13:40:27;;;;;;;0.97;0.63;;;8.40;99.90;;;;;;5035679;28;20203;-57
2023/01/15 13:42:56;;;;;;;1.80;0.73;;;8.40;99.90;;;;;;5036083;28;20411;-57
2023/01/15 13:45:35;;;;;;;2.33;1.30;;;8.50;99.90;;;;;;5035265;28;20257;-57
2023/01/15 13:48:06;;;;;;;10.23;7.33;;;8.50;99.90;;;;;;5035640;28;20280;-57
2023/01/15 13:50:36;;;;;;;1.80;0.90;;;8.70;99.90;;;;;;5034970;28;20217;-56